< < Back
Terminal Aerodrome Forecast


Current Version              Previous Versions:   1  2  3  4  5  6  7  8  9  

Terminal Aerodrome Forecast

015
FTUS42 KCAE 051735
TAFCAE
TAF
KCAE 051735Z 0518/0618 02010G18KT P6SM SKC
     FM052100 02008KT P6SM SKC
     FM060000 VRB03KT P6SM SKC
     FM061400 07008KT P6SM SCT250=

Latest METAR

857
SAUS80 KWBC 060300
MTRCAE
METAR KCAE 060256Z 00000KT 10SM CLR 02/M02 A3039 RMK AO2 SLP294
T00171022 51010


USA.gov is the U.S. government's official web portal to all federal, state and local government web resources and services.